Pheba, Mississippi
Current Conditions -  °F | °C
As of 12:15 AM on Sunday 23 Nov 2014 (Local Time) from KSTF Reporting Station
Overcast Overcast  
Wind Chill: 59°   Ceiling: 1200
Heat Index: 59°   Visibility: NA
Dew Point: 55°   Wind: 13mph
Humidity: 88%   Direction: 130°SE
Pressure: 29.97"   Gusts: 23mph
Location:  33.58°N, 88.95°W
Report Text: KSTF 230615Z AUTO 13011G20KT OVC012 15/13 A2997 RMK AO2 PWINO
Loading
Personal Weather Stations






























Interactive Weather Map New forecast layout! Learn more

10-Day Weather Forecast

Advertisements
Track Severe Weather on mobile